createdAt,value
2023-01-04T00:01:36.587Z,33.76
2023-01-04T00:04:06.986Z,33.69
2023-01-04T00:06:36.559Z,34.06
2023-01-04T00:09:04.914Z,33.89
2023-01-04T00:11:33.548Z,34.33
2023-01-04T00:14:01.887Z,34.01
2023-01-04T00:16:30.676Z,34.17
2023-01-04T00:18:59.352Z,34.04
2023-01-04T00:21:31.137Z,33.75
2023-01-04T00:24:01.565Z,33.88
2023-01-04T00:26:32.052Z,33.94
2023-01-04T00:29:02.056Z,33.92
2023-01-04T00:31:30.827Z,34.11
2023-01-04T00:34:00.935Z,34.02
2023-01-04T00:36:31.052Z,33.96
2023-01-04T00:39:10.200Z,34.17
2023-01-04T00:44:29.845Z,34.08
2023-01-04T00:46:58.719Z,34.10
2023-01-04T00:49:27.328Z,34.10
2023-01-04T00:51:57.455Z,33.83
2023-01-04T00:54:26.031Z,34.09
2023-01-04T00:56:54.569Z,34.11
2023-01-04T00:59:23.341Z,34.18
2023-01-04T01:01:52.793Z,34.19
2023-01-04T01:04:23.620Z,33.90
2023-01-04T01:06:53.003Z,34.16
2023-01-04T01:09:23.960Z,34.53
2023-01-04T01:11:52.470Z,33.12
2023-01-04T01:14:22.844Z,33.93
2023-01-04T01:16:57.223Z,34.09
2023-01-04T01:19:27.856Z,33.88
2023-01-04T01:21:57.528Z,34.31
2023-01-04T01:24:28.025Z,34.00
2023-01-04T01:26:57.400Z,34.28
2023-01-04T01:29:25.983Z,34.25
2023-01-04T01:31:54.866Z,34.13
2023-01-04T01:34:23.097Z,34.27
2023-01-04T01:36:51.716Z,34.26
2023-01-04T01:39:20.077Z,34.27
2023-01-04T01:41:50.325Z,34.16
2023-01-04T01:44:56.261Z,33.41
2023-01-04T01:47:26.874Z,34.64
2023-01-04T01:49:55.866Z,34.81
2023-01-04T01:52:27.445Z,34.61
2023-01-04T01:54:55.829Z,33.59
2023-01-04T01:57:27.245Z,34.03
2023-01-04T01:59:57.522Z,34.37
2023-01-04T02:02:26.289Z,34.60
2023-01-04T02:04:54.866Z,35.10
2023-01-04T02:07:25.447Z,34.74
2023-01-04T02:09:53.736Z,34.86
2023-01-04T02:12:22.537Z,34.65
2023-01-04T02:14:52.695Z,34.69
2023-01-04T02:17:31.119Z,34.41
2023-01-04T02:20:24.152Z,34.04
2023-01-04T02:23:19.087Z,34.09
2023-01-04T02:26:17.627Z,34.27
2023-01-04T02:29:02.035Z,34.16
2023-01-04T02:31:37.198Z,34.32
2023-01-04T02:34:10.953Z,34.89
2023-01-04T02:36:42.539Z,35.07
2023-01-04T02:39:18.571Z,34.45
2023-01-04T02:41:51.763Z,34.72
2023-01-04T02:44:41.950Z,34.99
2023-01-04T02:47:13.698Z,34.52
2023-01-04T02:50:04.616Z,35.10
2023-01-04T02:52:34.484Z,34.92
2023-01-04T02:55:06.671Z,34.66
2023-01-04T02:57:44.913Z,34.26
2023-01-04T03:00:29.818Z,34.00
2023-01-04T03:03:29.927Z,34.09
2023-01-04T03:06:16.725Z,34.02
2023-01-04T03:08:51.382Z,34.00
2023-01-04T03:11:37.628Z,34.15
2023-01-04T03:14:32.269Z,33.76
2023-01-04T03:17:00.461Z,34.14
2023-01-04T03:19:47.310Z,34.05
2023-01-04T03:22:31.777Z,34.35
2023-01-04T03:25:18.791Z,34.33
2023-01-04T03:28:05.441Z,34.34
2023-01-04T03:30:54.484Z,33.92
2023-01-04T03:33:41.035Z,33.94
2023-01-04T03:36:21.722Z,33.12
2023-01-04T03:39:11.208Z,33.94
2023-01-04T03:42:03.333Z,34.16
2023-01-04T03:44:51.850Z,34.38
2023-01-04T03:47:41.541Z,34.56
2023-01-04T03:50:14.187Z,34.65
2023-01-04T03:52:45.126Z,34.38
2023-01-04T03:55:13.712Z,32.62
2023-01-04T03:57:42.261Z,33.82
2023-01-04T04:00:13.367Z,34.12
2023-01-04T04:02:42.485Z,34.05
2023-01-04T04:05:33.600Z,33.94
2023-01-04T04:08:21.147Z,34.16
2023-01-04T04:10:49.764Z,34.51
2023-01-04T04:13:20.762Z,34.42
2023-01-04T04:15:49.433Z,34.42
2023-01-04T04:18:17.686Z,34.57
2023-01-04T04:20:46.374Z,34.56
2023-01-04T04:23:15.979Z,34.62
2023-01-04T04:25:44.485Z,34.71
2023-01-04T04:28:12.750Z,35.08
2023-01-04T04:30:41.229Z,34.98
2023-01-04T04:33:09.624Z,35.20
2023-01-04T04:35:38.125Z,35.46
2023-01-04T04:38:06.358Z,35.93
2023-01-04T04:40:53.904Z,36.06
2023-01-04T04:43:22.507Z,35.65
2023-01-04T04:45:51.217Z,35.58
2023-01-04T04:48:19.796Z,35.96
2023-01-04T04:50:48.381Z,35.90
2023-01-04T04:53:16.694Z,36.19
2023-01-04T04:55:46.766Z,35.96
2023-01-04T04:58:15.090Z,36.05
2023-01-04T05:00:44.070Z,36.07
2023-01-04T05:03:12.623Z,35.92
2023-01-04T05:05:41.385Z,36.05
2023-01-04T05:08:09.755Z,36.34
2023-01-04T05:10:38.988Z,36.52
2023-01-04T05:13:10.844Z,36.63
2023-01-04T05:15:41.583Z,36.62
2023-01-04T05:18:11.095Z,36.46
2023-01-04T05:20:39.769Z,36.74
2023-01-04T05:23:09.045Z,36.77
2023-01-04T05:25:37.741Z,36.52
2023-01-04T05:28:08.248Z,36.56
2023-01-04T05:30:51.290Z,36.91
2023-01-04T05:33:21.435Z,36.78
2023-01-04T05:35:50.537Z,36.68
2023-01-04T05:38:19.396Z,37.28
2023-01-04T05:40:48.340Z,37.07
2023-01-04T05:43:18.224Z,36.97
2023-01-04T05:45:50.211Z,36.81
2023-01-04T05:48:18.541Z,37.02
2023-01-04T05:50:47.393Z,36.56
2023-01-04T05:53:18.971Z,36.22
2023-01-04T05:55:49.220Z,36.08
2023-01-04T05:58:19.197Z,35.38
2023-01-04T06:00:47.707Z,36.21
2023-01-04T06:03:16.098Z,36.30
2023-01-04T06:05:44.652Z,36.38
2023-01-04T06:08:12.892Z,36.20
2023-01-04T06:10:41.542Z,36.22
2023-01-04T06:13:09.890Z,35.92
2023-01-04T06:15:43.169Z,35.61
2023-01-04T06:18:13.862Z,35.77
2023-01-04T06:20:44.124Z,35.59
2023-01-04T06:23:12.328Z,35.53
2023-01-04T06:25:40.917Z,35.60
2023-01-04T06:28:09.344Z,35.58
2023-01-04T06:30:39.282Z,35.39
2023-01-04T06:33:07.595Z,35.46
2023-01-04T06:35:36.786Z,35.43
2023-01-04T06:38:05.046Z,35.65
2023-01-04T06:40:33.592Z,35.52
2023-01-04T06:43:01.870Z,35.27
2023-01-04T06:45:30.744Z,35.21
2023-01-04T06:48:04.450Z,35.12
2023-01-04T06:50:36.293Z,35.23
2023-01-04T06:53:04.835Z,35.08
2023-01-04T06:55:33.763Z,35.01
2023-01-04T06:58:02.816Z,35.03
2023-01-04T07:00:31.988Z,34.89
2023-01-04T07:03:13.510Z,34.86
2023-01-04T07:05:49.096Z,34.67
2023-01-04T07:08:18.383Z,34.67
2023-01-04T07:10:48.100Z,34.56
2023-01-04T07:13:19.442Z,34.45
2023-01-04T07:15:49.016Z,34.63
2023-01-04T07:18:20.814Z,34.20
2023-01-04T07:20:49.731Z,34.19
2023-01-04T07:23:24.182Z,34.30
2023-01-04T07:25:53.825Z,34.22
2023-01-04T07:28:36.181Z,34.06
2023-01-04T07:31:07.668Z,32.90
2023-01-04T07:33:39.171Z,31.00
2023-01-04T07:36:13.524Z,29.32
2023-01-04T07:38:44.346Z,27.83
2023-01-04T07:41:14.054Z,26.19
2023-01-04T07:43:42.538Z,25.52
2023-01-04T07:46:11.634Z,24.39
2023-01-04T07:48:44.200Z,23.76
2023-01-04T07:51:13.175Z,24.09
2023-01-04T07:53:42.388Z,24.22
2023-01-04T07:56:16.764Z,24.21
2023-01-04T07:58:49.865Z,23.20
2023-01-04T08:01:20.678Z,21.99
2023-01-04T08:03:51.766Z,21.21
2023-01-04T08:06:22.539Z,20.48
2023-01-04T08:08:51.069Z,19.93
2023-01-04T08:11:22.795Z,19.50
2023-01-04T08:13:51.547Z,19.73
2023-01-04T08:16:25.332Z,19.17
2023-01-04T08:18:57.109Z,18.34
2023-01-04T08:21:27.383Z,17.96
2023-01-04T08:23:56.152Z,17.10
2023-01-04T08:26:24.795Z,16.46
2023-01-04T08:28:53.510Z,15.30
2023-01-04T08:31:23.605Z,15.23
2023-01-04T08:33:52.288Z,14.70
2023-01-04T08:36:27.108Z,14.13
2023-01-04T08:39:00.591Z,14.06
2023-01-04T08:44:19.295Z,13.76
2023-01-04T08:46:48.920Z,13.37
2023-01-04T08:49:18.271Z,13.06
2023-01-04T08:51:52.322Z,13.09
2023-01-04T08:54:21.176Z,13.53
2023-01-04T08:56:49.899Z,13.04
2023-01-04T08:59:18.669Z,12.71
2023-01-04T09:01:47.784Z,12.57
2023-01-04T09:04:16.331Z,12.46
2023-01-04T09:06:45.031Z,12.46
2023-01-04T09:09:14.829Z,12.28
2023-01-04T09:11:43.517Z,12.39
2023-01-04T09:14:14.116Z,12.33
2023-01-04T09:16:43.021Z,12.06
2023-01-04T09:19:15.150Z,11.71
2023-01-04T09:21:47.077Z,11.75
2023-01-04T09:24:16.942Z,11.68
2023-01-04T09:26:47.661Z,11.64
2023-01-04T09:29:16.216Z,11.32
2023-01-04T09:31:45.080Z,11.38
2023-01-04T09:34:16.481Z,11.26
2023-01-04T09:36:46.346Z,11.35
2023-01-04T09:39:24.450Z,11.35
2023-01-04T09:41:59.046Z,10.95
2023-01-04T09:47:34.456Z,11.10
2023-01-04T09:50:08.143Z,10.96
2023-01-04T09:52:44.563Z,10.83
2023-01-04T09:55:37.626Z,10.68
2023-01-04T09:58:15.099Z,10.86
2023-01-04T10:00:46.372Z,11.12
2023-01-04T10:03:17.756Z,11.23
2023-01-04T10:05:46.471Z,11.25
2023-01-04T10:08:17.818Z,10.82
2023-01-04T10:10:56.438Z,10.19
2023-01-04T10:13:40.074Z,10.02
2023-01-04T10:16:17.653Z,10.41
2023-01-04T10:19:36.969Z,11.03
2023-01-04T10:21:49.082Z,11.23
2023-01-04T10:24:36.823Z,10.90
2023-01-04T10:27:18.415Z,10.56
2023-01-04T10:29:54.867Z,11.41
2023-01-04T10:32:34.392Z,10.98
2023-01-04T10:35:03.957Z,11.47
2023-01-04T10:37:36.087Z,11.85
2023-01-04T10:40:14.054Z,12.79
2023-01-04T10:42:50.334Z,13.29
2023-01-04T10:45:22.656Z,14.01
2023-01-04T10:47:57.755Z,13.62
2023-01-04T10:50:30.752Z,13.65
2023-01-04T10:53:04.077Z,12.94
2023-01-04T10:55:37.982Z,13.13
2023-01-04T10:58:13.853Z,13.71
2023-01-04T11:00:45.582Z,14.87
2023-01-04T11:03:20.014Z,15.70
2023-01-04T11:05:52.846Z,15.75
2023-01-04T11:08:27.778Z,16.35
2023-01-04T11:10:59.886Z,16.93
2023-01-04T11:13:29.934Z,17.83
2023-01-04T11:16:01.458Z,18.82
2023-01-04T11:18:30.334Z,18.54
2023-01-04T11:20:59.127Z,19.05
2023-01-04T11:23:27.524Z,19.24
2023-01-04T11:25:59.097Z,19.28
2023-01-04T11:28:31.243Z,19.47
2023-01-04T11:31:05.532Z,19.50
2023-01-04T11:33:53.526Z,19.70
2023-01-04T11:36:39.927Z,20.01
2023-01-04T11:39:18.917Z,20.20
2023-01-04T11:42:00.753Z,19.86
2023-01-04T11:44:33.606Z,20.04
2023-01-04T11:47:10.893Z,19.61
2023-01-04T11:49:39.301Z,19.81
2023-01-04T11:52:08.656Z,19.77
2023-01-04T11:54:37.208Z,19.73
2023-01-04T11:57:11.605Z,20.47
2023-01-04T12:05:26.190Z,21.04
2023-01-04T12:07:59.269Z,22.18
2023-01-04T12:10:29.809Z,22.71
2023-01-04T12:13:02.425Z,23.00
2023-01-04T12:15:37.041Z,23.21
2023-01-04T12:18:08.028Z,23.46
2023-01-04T12:20:37.595Z,23.65
2023-01-04T12:23:06.857Z,24.08
2023-01-04T12:25:40.496Z,24.04
2023-01-04T12:28:30.099Z,24.03
2023-01-04T12:31:28.684Z,24.62
2023-01-04T12:33:58.781Z,25.75
2023-01-04T12:37:03.105Z,25.02
2023-01-04T12:39:43.936Z,25.38
2023-01-04T12:42:25.011Z,25.82
2023-01-04T12:45:24.479Z,25.50
2023-01-04T12:48:13.087Z,25.75
2023-01-04T12:51:31.597Z,25.58
2023-01-04T12:54:02.237Z,26.27
2023-01-04T12:57:08.253Z,25.05
2023-01-04T12:59:38.746Z,25.76
2023-01-04T13:02:18.575Z,25.62
2023-01-04T13:04:49.303Z,25.74
2023-01-04T13:07:22.298Z,25.92
2023-01-04T13:09:56.288Z,25.58
2023-01-04T13:13:01.056Z,25.47
2023-01-04T13:15:42.670Z,25.73
2023-01-04T13:18:30.454Z,25.58
2023-01-04T13:21:01.390Z,26.44
2023-01-04T13:23:32.061Z,26.67
2023-01-04T13:26:33.753Z,25.97
2023-01-04T13:29:12.034Z,26.63
2023-01-04T13:31:46.904Z,26.47
2023-01-04T13:34:24.686Z,26.30
2023-01-04T13:37:17.370Z,26.04
2023-01-04T13:39:47.991Z,26.89
2023-01-04T13:42:25.320Z,26.04
2023-01-04T13:45:39.642Z,26.18
2023-01-04T13:48:12.425Z,26.00
2023-01-04T13:50:47.500Z,26.67
2023-01-04T13:53:22.842Z,26.14
2023-01-04T13:55:53.160Z,26.46
2023-01-04T13:58:23.299Z,26.53
2023-01-04T14:00:54.937Z,26.59
2023-01-04T14:03:29.047Z,26.55
2023-01-04T14:06:04.688Z,26.81
2023-01-04T14:08:39.737Z,26.93
2023-01-04T14:11:36.907Z,26.82
2023-01-04T14:14:05.997Z,27.01
2023-01-04T14:16:35.005Z,27.53
2023-01-04T14:19:40.402Z,26.99
2023-01-04T14:22:40.010Z,26.82
2023-01-04T14:25:56.727Z,26.57
2023-01-04T14:28:38.855Z,26.85
2023-01-04T14:31:30.183Z,27.26
2023-01-04T14:34:00.594Z,27.46
2023-01-04T14:36:32.787Z,27.36
2023-01-04T14:39:13.509Z,26.75
2023-01-04T14:41:46.013Z,27.52
2023-01-04T14:44:21.152Z,27.63
2023-01-04T14:46:51.593Z,27.84
2023-01-04T14:49:22.470Z,27.92
2023-01-04T14:51:53.492Z,28.15
2023-01-04T14:54:25.397Z,28.44
2023-01-04T14:56:54.820Z,28.19
2023-01-04T14:59:25.728Z,28.01
2023-01-04T15:01:55.067Z,28.38
2023-01-04T15:04:25.790Z,28.99
2023-01-04T15:06:56.762Z,28.97
2023-01-04T15:09:25.707Z,29.16
2023-01-04T15:11:55.417Z,29.15
2023-01-04T15:14:27.999Z,29.35
2023-01-04T15:16:56.698Z,30.05
2023-01-04T15:19:25.768Z,29.38
2023-01-04T15:21:54.621Z,29.73
2023-01-04T15:24:23.512Z,30.01
2023-01-04T15:26:52.598Z,30.40
2023-01-04T15:29:22.641Z,31.17
2023-01-04T15:31:52.773Z,31.28
2023-01-04T15:34:23.272Z,31.60
2023-01-04T15:36:52.786Z,32.31
2023-01-04T15:39:21.886Z,32.56
2023-01-04T15:42:04.392Z,33.15
2023-01-04T15:44:34.054Z,33.46
2023-01-04T15:47:04.420Z,33.85
2023-01-04T15:49:38.561Z,34.71
2023-01-04T15:52:07.372Z,34.52
2023-01-04T15:54:37.625Z,35.01
2023-01-04T15:57:06.582Z,35.20
2023-01-04T15:59:35.536Z,34.81
2023-01-04T16:02:05.698Z,34.75
2023-01-04T16:04:34.495Z,35.01
2023-01-04T16:07:03.009Z,35.31
2023-01-04T16:09:31.884Z,35.76
2023-01-04T16:12:18.159Z,35.07
2023-01-04T16:14:46.687Z,35.11
2023-01-04T16:17:16.465Z,35.16
2023-01-04T16:19:45.209Z,35.00
2023-01-04T16:22:13.941Z,34.85
2023-01-04T16:25:09.926Z,35.20
2023-01-04T16:27:35.397Z,34.84
2023-01-04T16:30:05.436Z,35.45
2023-01-04T16:32:41.774Z,34.44
2023-01-04T16:35:13.045Z,34.60
2023-01-04T16:37:43.084Z,34.63
2023-01-04T16:40:13.334Z,34.62
2023-01-04T16:42:41.937Z,34.32
2023-01-04T16:45:11.992Z,34.69
2023-01-04T16:47:43.948Z,34.13
2023-01-04T16:50:13.649Z,34.60
2023-01-04T16:52:42.229Z,34.46
2023-01-04T16:55:12.036Z,34.48
2023-01-04T16:57:40.514Z,34.53
2023-01-04T17:00:10.624Z,34.13
2023-01-04T17:02:39.786Z,34.59
2023-01-04T17:05:10.773Z,34.61
2023-01-04T17:07:42.311Z,34.40
2023-01-04T17:10:13.236Z,34.49
2023-01-04T17:12:49.447Z,34.42
2023-01-04T17:18:08.106Z,33.83
2023-01-04T17:20:41.021Z,33.85
2023-01-04T17:23:10.081Z,33.87
2023-01-04T17:25:38.844Z,34.03
2023-01-04T17:28:07.376Z,33.67
2023-01-04T17:30:39.230Z,32.92
2023-01-04T17:33:07.828Z,32.39
2023-01-04T17:35:41.561Z,33.23
2023-01-04T17:38:10.545Z,32.99
2023-01-04T17:40:39.743Z,32.88
2023-01-04T17:43:09.024Z,32.83
2023-01-04T17:45:38.442Z,32.76
2023-01-04T17:48:08.235Z,32.46
2023-01-04T17:50:39.761Z,32.40
2023-01-04T17:53:08.361Z,32.00
2023-01-04T17:55:38.188Z,32.46
2023-01-04T17:58:10.055Z,32.33
2023-01-04T18:00:42.825Z,32.34
2023-01-04T18:03:12.228Z,32.17
2023-01-04T18:05:52.037Z,31.43
2023-01-04T18:08:21.611Z,32.10
2023-01-04T18:11:07.323Z,32.01
2023-01-04T18:13:36.929Z,32.43
2023-01-04T18:16:23.939Z,31.92
2023-01-04T18:18:58.104Z,32.28
2023-01-04T18:21:31.065Z,31.63
2023-01-04T18:24:35.504Z,31.98
2023-01-04T18:29:42.227Z,31.88
2023-01-04T18:32:13.630Z,32.07
2023-01-04T18:34:43.221Z,32.62
2023-01-04T18:37:16.393Z,31.86
2023-01-04T18:39:45.919Z,32.03
2023-01-04T18:42:15.122Z,31.95
2023-01-04T18:44:51.077Z,32.12
2023-01-04T18:47:21.859Z,31.82
2023-01-04T18:49:51.436Z,32.05
2023-01-04T18:52:22.594Z,31.71
2023-01-04T18:54:52.305Z,31.62
2023-01-04T18:57:22.823Z,32.11
2023-01-04T18:59:52.134Z,32.27
2023-01-04T19:02:22.367Z,32.10
2023-01-04T19:04:52.597Z,31.95
2023-01-04T19:07:23.642Z,32.15
2023-01-04T19:09:52.382Z,32.31
2023-01-04T19:12:21.596Z,31.85
2023-01-04T19:14:50.373Z,31.76
2023-01-04T19:17:21.668Z,32.28
2023-01-04T19:19:50.355Z,32.18
2023-01-04T19:22:19.121Z,32.42
2023-01-04T19:24:49.285Z,32.58
2023-01-04T19:27:19.844Z,32.67
2023-01-04T19:29:48.717Z,32.23
2023-01-04T19:32:21.343Z,32.62
2023-01-04T19:34:52.173Z,32.28
2023-01-04T19:37:21.552Z,31.73
2023-01-04T19:39:51.611Z,32.27
2023-01-04T19:42:21.153Z,32.40
2023-01-04T19:44:49.698Z,32.74
2023-01-04T19:47:19.258Z,32.72
2023-01-04T19:49:49.174Z,31.98
2023-01-04T19:52:18.063Z,32.44
2023-01-04T19:54:46.331Z,32.50
2023-01-04T19:57:16.272Z,32.18
2023-01-04T19:59:44.640Z,31.82
2023-01-04T20:02:13.765Z,32.59
2023-01-04T20:04:42.735Z,32.50
2023-01-04T20:07:12.109Z,32.13
2023-01-04T20:09:43.719Z,32.00
2023-01-04T20:12:12.808Z,31.95
2023-01-04T20:14:45.010Z,31.96
2023-01-04T20:17:16.091Z,32.48
2023-01-04T20:19:46.303Z,32.71
2023-01-04T20:22:17.687Z,32.43
2023-01-04T20:24:46.867Z,32.38
2023-01-04T20:27:16.162Z,32.31
2023-01-04T20:29:46.160Z,31.95
2023-01-04T20:32:15.104Z,32.07
2023-01-04T20:34:44.849Z,32.11
2023-01-04T20:37:14.082Z,32.08
2023-01-04T20:39:42.585Z,32.37
2023-01-04T20:42:29.068Z,32.23
2023-01-04T20:44:59.330Z,32.54
2023-01-04T20:47:30.503Z,32.16
2023-01-04T20:49:59.578Z,32.23
2023-01-04T20:52:30.027Z,32.04
2023-01-04T20:54:59.700Z,32.34
2023-01-04T20:57:28.774Z,32.60
2023-01-04T20:59:58.813Z,32.10
2023-01-04T21:02:30.230Z,32.56
2023-01-04T21:05:01.858Z,32.34
2023-01-04T21:07:31.086Z,32.41
2023-01-04T21:09:59.742Z,32.22
2023-01-04T21:12:29.463Z,32.60
2023-01-04T21:14:59.773Z,32.56
2023-01-04T21:17:29.369Z,32.94
2023-01-04T21:19:58.251Z,33.18
2023-01-04T21:22:27.196Z,33.13
2023-01-04T21:24:56.039Z,33.57
2023-01-04T21:27:24.933Z,32.95
2023-01-04T21:29:53.229Z,33.16
2023-01-04T21:32:23.391Z,33.14
2023-01-04T21:34:54.094Z,33.27
2023-01-04T21:37:25.116Z,33.24
2023-01-04T21:39:57.180Z,32.74
2023-01-04T21:42:26.317Z,32.82
2023-01-04T21:44:55.523Z,32.58
2023-01-04T21:47:28.581Z,32.71
2023-01-04T21:49:57.381Z,33.08
2023-01-04T21:52:26.475Z,32.45
2023-01-04T21:54:55.364Z,32.79
2023-01-04T21:57:24.411Z,33.07
2023-01-04T21:59:53.025Z,33.28
2023-01-04T22:02:22.434Z,33.34
2023-01-04T22:04:52.468Z,33.32
2023-01-04T22:07:21.303Z,34.02
2023-01-04T22:09:57.091Z,34.30
2023-01-04T22:12:26.486Z,34.69
2023-01-04T22:14:55.309Z,33.95
2023-01-04T22:17:24.037Z,33.98
2023-01-04T22:19:53.900Z,34.11
2023-01-04T22:22:22.786Z,33.35
2023-01-04T22:24:51.743Z,34.22
2023-01-04T22:27:21.006Z,34.59
2023-01-04T22:29:49.320Z,34.10
2023-01-04T22:32:18.684Z,34.23
2023-01-04T22:34:51.710Z,33.81
2023-01-04T22:37:24.533Z,33.77
2023-01-04T22:40:03.377Z,33.62
2023-01-04T22:42:34.812Z,34.17
2023-01-04T22:45:12.784Z,34.20
2023-01-04T22:47:42.911Z,34.72
2023-01-04T22:50:18.624Z,34.28
2023-01-04T22:52:51.035Z,34.41
2023-01-04T22:55:45.784Z,34.25
2023-01-04T22:58:26.569Z,34.88
2023-01-04T23:01:01.865Z,34.88
2023-01-04T23:03:30.910Z,34.80
2023-01-04T23:06:04.455Z,34.88
2023-01-04T23:08:38.859Z,34.49
2023-01-04T23:11:15.571Z,34.29
2023-01-04T23:13:44.248Z,35.33
2023-01-04T23:16:19.083Z,34.85
2023-01-04T23:18:50.010Z,35.32
2023-01-04T23:21:18.334Z,35.41
2023-01-04T23:23:52.649Z,34.60
2023-01-04T23:26:24.130Z,34.50
2023-01-04T23:28:55.989Z,35.81
2023-01-04T23:31:32.790Z,35.83
2023-01-04T23:34:07.640Z,35.06
2023-01-04T23:36:38.239Z,35.58
2023-01-04T23:39:14.033Z,35.37
2023-01-04T23:41:45.794Z,35.89
2023-01-04T23:44:19.505Z,35.52
2023-01-04T23:46:48.516Z,35.54
2023-01-04T23:49:17.271Z,35.28
2023-01-04T23:51:45.567Z,35.59
2023-01-04T23:54:15.641Z,35.37
2023-01-04T23:56:44.016Z,35.06
2023-01-04T23:59:14.742Z,35.21
